East Brunswick, New Jersey
Current Conditions -  °F | °C
As of 6:35 PM on Tuesday 25 Nov 2014 (Local Time) from KLDJ Reporting Station
Clear Clear  
Wind Chill: 55°   Ceiling: Unl
Heat Index: 55°   Visibility: 10mi
Dew Point: 32°   Wind: 3mph
Humidity: 42%   Direction: 260°W
Pressure: 30.08"   Gusts: NA
Location:  40.42°N, 74.39°W
Report Text: KLDJ 252335Z AUTO 26003KT 10SM CLR 13/00 A3008 RMK AO2 T01270002
Loading
Personal Weather Stations






























Interactive Weather Map New forecast layout! Learn more

10-Day Weather Forecast

Advertisements
Track Severe Weather on mobile